Terminal Aerodrome Forecast
Issued by NWS

Current Version | Previous Version | Graphics & Text | Print | Product List | Glossary Off
Versions: 1 2 3 4 5 6 7 8 9 10 11 12 13 14 15 16 17 18 19 20 21 22 23 24

970
FTUS41 KRLX 241129 AAB
TAFCKB
TAF AMD
KCKB 241129Z 2411/2512 00000KT 6SM BR SCT020 SCT050
     FM241300 22005KT P6SM SCT035 SCT150
     FM251000 00000KT 6SM BR SCT060=

USA.gov is the U.S. government's official web portal to all federal, state and local government web resources and services.